createdAt,value
2018-04-25T00:01:35.389Z,76.60
2018-04-25T00:04:04.386Z,76.20
2018-04-25T00:06:32.636Z,76.00
2018-04-25T00:09:00.876Z,77.00
2018-04-25T00:11:29.854Z,77.00
2018-04-25T00:13:58.085Z,77.00
2018-04-25T00:16:26.309Z,77.00
2018-04-25T00:18:54.549Z,77.20
2018-04-25T00:21:23.533Z,77.20
2018-04-25T00:23:51.773Z,77.10
2018-04-25T00:26:20.298Z,76.80
2018-04-25T00:28:48.537Z,76.80
2018-04-25T00:31:16.773Z,77.70
2018-04-25T00:33:45.010Z,77.90
2018-04-25T00:36:13.281Z,78.20
2018-04-25T00:38:42.340Z,79.10
2018-04-25T00:41:10.569Z,79.00
2018-04-25T00:43:38.876Z,78.60
2018-04-25T00:46:07.134Z,77.50
2018-04-25T00:48:35.363Z,78.50
2018-04-25T00:51:03.632Z,76.60
2018-04-25T00:53:32.740Z,76.60
2018-04-25T00:56:01.762Z,78.70
2018-04-25T00:58:29.990Z,78.60
2018-04-25T01:00:58.217Z,78.60
2018-04-25T01:03:27.208Z,78.70
2018-04-25T01:05:55.442Z,78.60
2018-04-25T01:08:23.685Z,78.70
2018-04-25T01:10:51.929Z,78.60
2018-04-25T01:13:20.170Z,78.80
2018-04-25T01:15:48.402Z,78.90
2018-04-25T01:18:16.641Z,78.40
2018-04-25T01:20:44.865Z,77.40
2018-04-25T01:23:19.848Z,79.00
2018-04-25T01:25:48.093Z,79.50
2018-04-25T01:28:24.523Z,78.40
2018-04-25T01:30:57.377Z,78.40
2018-04-25T01:33:29.034Z,78.60
2018-04-25T01:36:20.618Z,79.80
2018-04-25T01:38:49.633Z,79.80
2018-04-25T01:41:17.893Z,80.30
2018-04-25T01:43:51.020Z,80.20
2018-04-25T01:46:20.066Z,81.10
2018-04-25T01:52:16.333Z,80.40
2018-04-25T01:55:02.615Z,81.00
2018-04-25T01:57:48.836Z,80.60
2018-04-25T02:00:35.022Z,80.60
2018-04-25T02:03:08.782Z,81.50
2018-04-25T02:05:36.786Z,81.10
2018-04-25T02:08:05.778Z,82.30
2018-04-25T02:10:34.010Z,82.90
2018-04-25T02:13:02.239Z,82.00
2018-04-25T02:15:30.476Z,82.10
2018-04-25T02:17:58.692Z,82.20
2018-04-25T02:20:26.956Z,83.00
2018-04-25T02:22:55.295Z,83.10
2018-04-25T02:25:23.503Z,84.50
2018-04-25T02:27:52.506Z,85.00
2018-04-25T02:30:20.730Z,85.00
2018-04-25T02:32:48.965Z,85.20
2018-04-25T02:35:17.186Z,84.90
2018-04-25T02:37:46.194Z,85.80
2018-04-25T02:40:15.200Z,85.40
2018-04-25T02:42:44.214Z,85.10
2018-04-25T02:45:12.469Z,85.10
2018-04-25T02:47:40.681Z,85.80
2018-04-25T02:50:08.940Z,84.50
2018-04-25T02:52:37.173Z,84.60
2018-04-25T02:55:05.393Z,84.80
2018-04-25T02:57:33.622Z,85.40
2018-04-25T03:00:02.613Z,85.00
2018-04-25T03:02:30.841Z,84.80
2018-04-25T03:04:59.190Z,85.90
2018-04-25T03:07:27.384Z,86.20
2018-04-25T03:09:55.623Z,86.90
2018-04-25T03:12:23.836Z,86.60
2018-04-25T03:14:52.073Z,86.90
2018-04-25T03:17:20.305Z,86.20
2018-04-25T03:19:48.526Z,86.30
2018-04-25T03:22:17.535Z,86.20
2018-04-25T03:24:46.527Z,86.70
2018-04-25T03:27:14.809Z,86.60
2018-04-25T03:29:43.050Z,85.60
2018-04-25T03:32:11.290Z,86.30
2018-04-25T03:34:39.546Z,86.00
2018-04-25T03:37:07.805Z,85.70
2018-04-25T03:39:36.030Z,85.70
2018-04-25T03:42:04.265Z,86.10
2018-04-25T03:44:33.261Z,86.10
2018-04-25T03:47:01.591Z,86.10
2018-04-25T03:49:29.836Z,85.70
2018-04-25T03:51:58.091Z,86.30
2018-04-25T03:54:26.520Z,86.50
2018-04-25T03:56:55.522Z,85.80
2018-04-25T03:59:23.795Z,85.80
2018-04-25T04:01:52.019Z,86.10
2018-04-25T04:04:21.012Z,86.30
2018-04-25T04:06:50.754Z,86.40
2018-04-25T04:09:19.050Z,86.40
2018-04-25T04:11:47.289Z,86.00
2018-04-25T04:14:15.591Z,85.90
2018-04-25T04:16:44.393Z,86.20
2018-04-25T04:19:12.637Z,86.40
2018-04-25T04:21:40.881Z,86.50
2018-04-25T04:24:09.902Z,86.20
2018-04-25T04:26:38.139Z,86.10
2018-04-25T04:29:06.377Z,86.00
2018-04-25T04:31:35.373Z,86.40
2018-04-25T04:34:04.369Z,86.30
2018-04-25T04:36:33.358Z,86.60
2018-04-25T04:39:01.587Z,86.50
2018-04-25T04:41:29.822Z,86.60
2018-04-25T04:43:58.052Z,86.10
2018-04-25T04:46:27.057Z,86.50
2018-04-25T04:48:56.056Z,86.60
2018-04-25T04:51:25.879Z,86.60
2018-04-25T04:53:54.869Z,86.70
2018-04-25T04:56:23.101Z,86.80
2018-04-25T04:58:51.321Z,86.50
2018-04-25T05:01:19.669Z,86.50
2018-04-25T05:03:47.960Z,86.20
2018-04-25T05:06:16.973Z,86.90
2018-04-25T05:08:46.092Z,86.60
2018-04-25T05:11:14.295Z,86.40
2018-04-25T05:13:42.559Z,87.00
2018-04-25T05:16:10.819Z,86.00
2018-04-25T05:18:39.057Z,86.40
2018-04-25T05:21:07.382Z,86.30
2018-04-25T05:23:35.587Z,85.70
2018-04-25T05:26:04.578Z,86.20
2018-04-25T05:28:32.801Z,86.10
2018-04-25T05:31:01.043Z,85.70
2018-04-25T05:33:30.022Z,86.10
2018-04-25T05:35:58.269Z,86.00
2018-04-25T05:38:27.279Z,86.10
2018-04-25T05:40:56.273Z,86.10
2018-04-25T05:43:25.304Z,86.40
2018-04-25T05:45:54.284Z,86.70
2018-04-25T05:48:22.506Z,86.70
2018-04-25T05:50:50.749Z,86.90
2018-04-25T05:53:19.012Z,86.50
2018-04-25T05:55:47.241Z,86.90
2018-04-25T05:58:15.481Z,86.40
2018-04-25T06:00:43.752Z,86.10
2018-04-25T06:03:12.018Z,85.50
2018-04-25T06:05:40.347Z,85.90
2018-04-25T06:08:08.584Z,85.20
2018-04-25T06:10:37.670Z,85.30
2018-04-25T06:13:06.516Z,85.20
2018-04-25T06:15:34.772Z,85.40
2018-04-25T06:18:02.993Z,85.80
2018-04-25T06:20:31.224Z,85.30
2018-04-25T06:22:59.446Z,85.30
2018-04-25T06:25:28.440Z,84.20
2018-04-25T06:27:57.842Z,84.10
2018-04-25T06:30:26.032Z,84.40
2018-04-25T06:32:54.261Z,84.20
2018-04-25T06:35:22.496Z,82.90
2018-04-25T06:37:50.746Z,82.40
2018-04-25T06:40:18.985Z,82.50
2018-04-25T06:42:47.205Z,82.40
2018-04-25T06:45:15.458Z,82.20
2018-04-25T06:47:43.728Z,81.90
2018-04-25T06:50:12.076Z,81.80
2018-04-25T06:52:41.067Z,82.20
2018-04-25T06:55:09.353Z,82.20
2018-04-25T06:57:38.395Z,82.50
2018-04-25T07:00:06.710Z,82.50
2018-04-25T07:02:34.956Z,82.70
2018-04-25T07:05:03.936Z,82.00
2018-04-25T07:07:32.924Z,81.10
2018-04-25T07:10:01.163Z,81.40
2018-04-25T07:12:29.405Z,82.20
2018-04-25T07:14:57.626Z,81.30
2018-04-25T07:17:25.893Z,81.60
2018-04-25T07:19:54.168Z,80.70
2018-04-25T07:22:22.365Z,80.40
2018-04-25T07:24:50.595Z,80.60
2018-04-25T07:27:20.373Z,80.20
2018-04-25T07:29:49.321Z,80.20
2018-04-25T07:32:17.570Z,78.60
2018-04-25T07:34:45.859Z,77.90
2018-04-25T07:37:14.207Z,77.50
2018-04-25T07:39:43.259Z,77.40
2018-04-25T07:42:11.507Z,76.10
2018-04-25T07:44:41.510Z,75.80
2018-04-25T07:47:09.733Z,74.90
2018-04-25T07:49:38.809Z,76.00
2018-04-25T07:52:07.979Z,76.20
2018-04-25T07:54:38.531Z,76.10
2018-04-25T07:57:06.730Z,74.70
2018-04-25T07:59:35.709Z,76.10
2018-04-25T08:02:06.491Z,73.80
2018-04-25T08:04:35.705Z,74.60
2018-04-25T08:07:04.681Z,73.00
2018-04-25T08:09:33.050Z,72.80
2018-04-25T08:12:02.182Z,71.70
2018-04-25T08:14:48.277Z,69.90
2018-04-25T08:17:28.482Z,70.80
2018-04-25T08:20:08.488Z,69.90
2018-04-25T08:22:36.721Z,71.30
2018-04-25T08:25:05.705Z,72.40
2018-04-25T08:27:34.656Z,71.70
2018-04-25T08:30:12.911Z,70.50
2018-04-25T08:32:41.202Z,72.00
2018-04-25T08:35:09.792Z,69.90
2018-04-25T08:37:38.886Z,71.00
2018-04-25T08:40:07.960Z,68.40
2018-04-25T08:42:36.270Z,68.50
2018-04-25T08:45:04.581Z,67.90
2018-04-25T08:47:33.545Z,68.40
2018-04-25T08:50:06.625Z,67.30
2018-04-25T08:52:35.601Z,67.30
2018-04-25T08:55:05.740Z,64.50
2018-04-25T08:57:34.111Z,65.10
2018-04-25T09:00:04.656Z,66.10
2018-04-25T09:02:34.910Z,65.20
2018-04-25T09:05:03.141Z,65.50
2018-04-25T09:07:31.361Z,67.20
2018-04-25T09:10:00.148Z,66.00
2018-04-25T09:12:30.962Z,65.50
2018-04-25T09:15:02.214Z,66.00
2018-04-25T09:17:30.460Z,62.60
2018-04-25T09:20:04.418Z,62.40
2018-04-25T09:22:33.633Z,62.20
2018-04-25T09:25:01.861Z,61.50
2018-04-25T09:27:30.645Z,65.30
2018-04-25T09:29:59.642Z,61.30
2018-04-25T09:32:27.939Z,61.20
2018-04-25T09:34:56.837Z,64.10
2018-04-25T09:37:25.079Z,61.50
2018-04-25T09:39:56.440Z,62.80
2018-04-25T09:42:24.658Z,61.30
2018-04-25T09:44:52.865Z,61.80
2018-04-25T09:47:22.554Z,62.70
2018-04-25T09:49:50.760Z,62.60
2018-04-25T09:52:19.065Z,63.10
2018-04-25T09:54:49.448Z,63.30
2018-04-25T09:57:17.717Z,64.60
2018-04-25T09:59:45.945Z,64.50
2018-04-25T10:02:20.015Z,65.80
2018-04-25T10:04:49.036Z,67.90
2018-04-25T10:07:21.354Z,68.70
2018-04-25T10:09:49.621Z,68.80
2018-04-25T10:12:17.857Z,67.70
2018-04-25T10:14:46.178Z,69.10
2018-04-25T10:17:14.559Z,69.50
2018-04-25T10:19:42.703Z,69.00
2018-04-25T10:22:11.735Z,72.60
2018-04-25T10:24:40.538Z,72.60
2018-04-25T10:27:09.739Z,73.50
2018-04-25T10:29:38.740Z,73.70
2018-04-25T10:32:07.203Z,70.70
2018-04-25T10:34:35.574Z,75.00
2018-04-25T10:37:03.810Z,70.30
2018-04-25T10:39:31.991Z,69.50
2018-04-25T10:42:00.214Z,68.10
2018-04-25T10:44:29.359Z,69.30
2018-04-25T10:46:57.593Z,68.70
2018-04-25T10:49:27.159Z,67.70
2018-04-25T10:51:55.925Z,71.00
2018-04-25T10:54:24.222Z,69.70
2018-04-25T10:56:52.513Z,67.70
2018-04-25T10:59:20.714Z,65.50
2018-04-25T11:01:50.476Z,65.00
2018-04-25T11:04:19.365Z,65.00
2018-04-25T11:06:47.516Z,65.60
2018-04-25T11:09:16.515Z,62.80
2018-04-25T11:11:45.523Z,68.70
2018-04-25T11:14:13.753Z,68.90
2018-04-25T11:16:42.024Z,63.10
2018-04-25T11:19:11.118Z,65.50
2018-04-25T11:21:39.460Z,65.70
2018-04-25T11:24:07.775Z,64.70
2018-04-25T11:26:37.071Z,63.30
2018-04-25T11:29:05.370Z,66.30
2018-04-25T11:31:33.649Z,62.30
2018-04-25T11:34:01.885Z,62.80
2018-04-25T11:36:30.097Z,64.50
2018-04-25T11:38:59.657Z,64.50
2018-04-25T11:41:27.882Z,64.50
2018-04-25T11:43:56.161Z,64.30
2018-04-25T11:46:24.373Z,64.50
2018-04-25T11:48:53.509Z,64.40
2018-04-25T11:51:21.774Z,69.90
2018-04-25T11:53:49.988Z,66.30
2018-04-25T11:56:19.038Z,65.30
2018-04-25T11:58:47.246Z,65.50
2018-04-25T12:01:16.379Z,62.00
2018-04-25T12:03:45.432Z,64.40
2018-04-25T12:06:13.664Z,64.20
2018-04-25T12:08:42.946Z,61.70
2018-04-25T12:11:11.186Z,63.60
2018-04-25T12:13:39.562Z,61.60
2018-04-25T12:16:07.994Z,63.20
2018-04-25T12:18:37.939Z,61.70
2018-04-25T12:21:12.178Z,61.10
2018-04-25T12:23:45.534Z,63.10
2018-04-25T12:26:14.499Z,63.10
2018-04-25T12:28:42.720Z,64.90
2018-04-25T12:31:10.969Z,64.20
2018-04-25T12:33:39.589Z,63.40
2018-04-25T12:36:07.943Z,62.70
2018-04-25T12:38:36.925Z,63.40
2018-04-25T12:41:05.299Z,62.60
2018-04-25T12:43:33.530Z,63.70
2018-04-25T12:46:02.677Z,66.90
2018-04-25T12:48:31.046Z,67.00
2018-04-25T12:51:00.112Z,61.30
2018-04-25T12:53:29.860Z,61.20
2018-04-25T12:55:58.226Z,61.10
2018-04-25T12:58:28.372Z,64.10
2018-04-25T13:00:57.763Z,61.90
2018-04-25T13:03:26.077Z,62.30
2018-04-25T13:05:54.430Z,60.10
2018-04-25T13:08:29.656Z,61.80
2018-04-25T13:10:57.900Z,62.00
2018-04-25T13:13:26.201Z,66.70
2018-04-25T13:15:54.912Z,63.90
2018-04-25T13:18:24.896Z,63.50
2018-04-25T13:23:36.835Z,61.40
2018-04-25T13:26:05.859Z,60.60
2018-04-25T13:28:34.144Z,60.50
2018-04-25T13:31:02.451Z,60.90
2018-04-25T13:33:31.073Z,59.70
2018-04-25T13:35:59.500Z,71.80
2018-04-25T13:38:28.426Z,60.10
2018-04-25T13:40:57.752Z,64.00
2018-04-25T13:43:26.803Z,58.10
2018-04-25T13:45:55.039Z,57.90
2018-04-25T13:48:23.282Z,59.10
2018-04-25T13:50:51.533Z,62.10
2018-04-25T13:53:19.985Z,58.10
2018-04-25T13:55:48.978Z,69.90
2018-04-25T13:58:18.004Z,58.60
2018-04-25T14:00:47.047Z,59.20
2018-04-25T14:03:15.319Z,59.00
2018-04-25T14:05:43.538Z,61.70
2018-04-25T14:08:11.740Z,70.10
2018-04-25T14:10:39.988Z,56.40
2018-04-25T14:13:09.861Z,58.20
2018-04-25T14:15:39.403Z,58.20
2018-04-25T14:18:08.377Z,57.80
2018-04-25T14:20:36.621Z,60.60
2018-04-25T14:23:08.506Z,58.80
2018-04-25T14:25:36.744Z,58.70
2018-04-25T14:28:05.814Z,58.40
2018-04-25T14:30:42.603Z,58.50
2018-04-25T14:33:16.391Z,59.60
2018-04-25T14:35:44.679Z,59.50
2018-04-25T14:38:12.888Z,59.20
2018-04-25T14:40:42.225Z,59.30
2018-04-25T14:43:11.184Z,59.20
2018-04-25T14:45:39.572Z,59.10
2018-04-25T14:48:10.516Z,59.00
2018-04-25T14:50:41.979Z,59.30
2018-04-25T14:53:20.666Z,59.00
2018-04-25T14:55:49.661Z,59.40
2018-04-25T14:58:17.894Z,59.20
2018-04-25T15:00:46.881Z,59.60
2018-04-25T15:03:15.146Z,59.60
2018-04-25T15:05:43.381Z,58.60
2018-04-25T15:08:13.251Z,57.80
2018-04-25T15:10:41.495Z,57.70
2018-04-25T15:13:09.750Z,57.10
2018-04-25T15:15:37.946Z,58.80
2018-04-25T15:18:06.174Z,59.30
2018-04-25T15:20:34.768Z,59.50
2018-04-25T15:23:03.051Z,59.00
2018-04-25T15:25:31.333Z,59.30
2018-04-25T15:27:59.525Z,59.20
2018-04-25T15:30:27.772Z,59.00
2018-04-25T15:32:55.997Z,59.40
2018-04-25T15:35:24.230Z,57.90
2018-04-25T15:37:52.642Z,58.50
2018-04-25T15:40:20.847Z,58.90
2018-04-25T15:42:49.158Z,57.90
2018-04-25T15:45:18.515Z,58.00
2018-04-25T15:47:46.782Z,62.40
2018-04-25T15:50:16.210Z,56.50
2018-04-25T15:52:44.451Z,56.40
2018-04-25T15:55:12.669Z,57.60
2018-04-25T15:57:41.714Z,58.30
2018-04-25T16:00:09.916Z,57.70
2018-04-25T16:02:38.987Z,58.30
2018-04-25T16:05:08.003Z,58.20
2018-04-25T16:07:37.050Z,57.80
2018-04-25T16:10:05.358Z,57.70
2018-04-25T16:12:33.622Z,58.30
2018-04-25T16:15:01.827Z,58.20
2018-04-25T16:17:30.093Z,65.80
2018-04-25T16:19:58.372Z,58.20
2018-04-25T16:22:26.677Z,59.20
2018-04-25T16:24:55.021Z,58.00
2018-04-25T16:27:23.347Z,62.50
2018-04-25T16:29:51.612Z,56.50
2018-04-25T16:32:19.885Z,56.90
2018-04-25T16:34:48.857Z,57.20
2018-04-25T16:37:17.187Z,57.20
2018-04-25T16:39:45.439Z,57.50
2018-04-25T16:42:13.709Z,57.40
2018-04-25T16:44:41.970Z,57.50
2018-04-25T16:47:10.138Z,58.40
2018-04-25T16:49:39.138Z,58.10
2018-04-25T16:52:08.125Z,57.80
2018-04-25T16:54:36.366Z,57.70
2018-04-25T16:57:04.750Z,57.20
2018-04-25T16:59:32.864Z,57.80
2018-04-25T17:02:01.089Z,58.30
2018-04-25T17:04:30.087Z,58.30
2018-04-25T17:06:58.879Z,58.30
2018-04-25T17:09:27.300Z,59.00
2018-04-25T17:11:56.293Z,58.00
2018-04-25T17:14:26.066Z,71.40
2018-04-25T17:16:54.426Z,71.40
2018-04-25T17:19:23.538Z,57.90
2018-04-25T17:21:51.834Z,57.80
2018-04-25T17:24:20.184Z,57.00
2018-04-25T17:26:48.373Z,58.00
2018-04-25T17:29:16.588Z,58.20
2018-04-25T17:31:44.817Z,57.90
2018-04-25T17:34:13.227Z,58.80
2018-04-25T17:36:41.459Z,59.20
2018-04-25T17:39:09.663Z,59.50
2018-04-25T17:41:38.661Z,59.30
2018-04-25T17:44:06.904Z,59.20
2018-04-25T17:46:35.135Z,60.00
2018-04-25T17:49:03.454Z,60.90
2018-04-25T17:51:31.674Z,59.40
2018-04-25T17:54:00.112Z,59.80
2018-04-25T17:56:28.403Z,59.30
2018-04-25T17:58:56.593Z,59.80
2018-04-25T18:01:25.605Z,60.00
2018-04-25T18:03:54.712Z,60.80
2018-04-25T18:06:22.973Z,60.80
2018-04-25T18:08:51.404Z,59.60
2018-04-25T18:11:21.640Z,60.60
2018-04-25T18:13:50.642Z,59.40
2018-04-25T18:16:18.850Z,59.30
2018-04-25T18:18:47.078Z,59.10
2018-04-25T18:21:15.318Z,59.60
2018-04-25T18:23:43.533Z,60.70
2018-04-25T18:26:12.914Z,64.30
2018-04-25T18:28:41.150Z,64.30
2018-04-25T18:31:09.376Z,67.60
2018-04-25T18:33:38.361Z,69.50
2018-04-25T18:36:07.472Z,69.50
2018-04-25T18:38:35.704Z,71.10
2018-04-25T18:41:03.940Z,74.80
2018-04-25T18:43:32.247Z,75.50
2018-04-25T18:46:00.474Z,77.20
2018-04-25T18:48:28.711Z,75.70
2018-04-25T18:50:56.958Z,77.70
2018-04-25T18:53:25.189Z,74.70
2018-04-25T18:55:53.507Z,75.90
2018-04-25T18:58:21.749Z,77.50
2018-04-25T19:00:50.020Z,76.80
2018-04-25T19:03:18.309Z,75.00
2018-04-25T19:05:46.456Z,75.80
2018-04-25T19:08:16.267Z,76.00
2018-04-25T19:10:44.493Z,76.00
2018-04-25T19:13:12.716Z,74.50
2018-04-25T19:15:40.929Z,73.80
2018-04-25T19:18:09.165Z,76.70
2018-04-25T19:20:37.394Z,73.90
2018-04-25T19:23:05.619Z,74.40
2018-04-25T19:25:34.640Z,74.30
2018-04-25T19:28:02.895Z,74.30
2018-04-25T19:30:31.113Z,77.90
2018-04-25T19:32:59.369Z,75.00
2018-04-25T19:35:28.303Z,75.80
2018-04-25T19:37:56.538Z,74.50
2018-04-25T19:40:25.553Z,75.40
2018-04-25T19:42:53.781Z,75.30
2018-04-25T19:45:22.091Z,74.60
2018-04-25T19:47:50.297Z,74.80
2018-04-25T19:50:18.521Z,74.30
2018-04-25T19:52:47.521Z,73.40
2018-04-25T19:55:15.839Z,73.30
2018-04-25T19:57:44.056Z,73.40
2018-04-25T20:00:12.260Z,74.20
2018-04-25T20:02:40.672Z,75.00
2018-04-25T20:05:14.917Z,74.80
2018-04-25T20:07:43.106Z,72.90
2018-04-25T20:10:12.150Z,74.80
2018-04-25T20:12:40.521Z,74.60
2018-04-25T20:15:08.792Z,74.20
2018-04-25T20:17:36.984Z,72.90
2018-04-25T20:20:05.256Z,73.50
2018-04-25T20:22:33.502Z,75.30
2018-04-25T20:25:01.730Z,72.60
2018-04-25T20:27:29.963Z,72.80
2018-04-25T20:29:58.202Z,72.70
2018-04-25T20:32:27.205Z,72.40
2018-04-25T20:34:56.275Z,73.00
2018-04-25T20:37:25.309Z,71.60
2018-04-25T20:39:54.304Z,71.50
2018-04-25T20:42:22.525Z,71.40
2018-04-25T20:44:50.865Z,74.60
2018-04-25T20:47:19.097Z,71.30
2018-04-25T20:49:48.080Z,71.80
2018-04-25T20:52:16.305Z,71.70
2018-04-25T20:54:44.532Z,72.60
2018-04-25T20:57:12.786Z,73.50
2018-04-25T20:59:41.028Z,72.00
2018-04-25T21:02:09.308Z,73.40
2018-04-25T21:04:37.536Z,74.30
2018-04-25T21:07:06.565Z,73.70
2018-04-25T21:09:35.541Z,71.70
2018-04-25T21:12:03.789Z,71.60
2018-04-25T21:14:32.017Z,74.20
2018-04-25T21:17:00.946Z,76.50
2018-04-25T21:19:29.941Z,74.20
2018-04-25T21:21:58.999Z,73.50
2018-04-25T21:24:27.221Z,73.50
2018-04-25T21:26:56.237Z,72.40
2018-04-25T21:29:24.478Z,72.50
2018-04-25T21:31:52.734Z,73.50
2018-04-25T21:34:20.944Z,73.40
2018-04-25T21:36:49.202Z,72.10
2018-04-25T21:39:18.196Z,73.50
2018-04-25T21:41:46.416Z,73.50
2018-04-25T21:44:14.686Z,73.30
2018-04-25T21:46:43.664Z,72.30
2018-04-25T21:49:11.882Z,72.30
2018-04-25T21:51:40.850Z,74.00
2018-04-25T21:54:09.106Z,73.70
2018-04-25T21:56:37.308Z,73.00
2018-04-25T21:59:05.536Z,72.80
2018-04-25T22:01:33.837Z,72.50
2018-04-25T22:04:02.833Z,72.60
2018-04-25T22:06:31.858Z,72.10
2018-04-25T22:09:00.090Z,71.90
2018-04-25T22:11:28.268Z,72.10
2018-04-25T22:13:56.513Z,72.80
2018-04-25T22:16:25.517Z,73.50
2018-04-25T22:18:54.498Z,72.40
2018-04-25T22:21:22.705Z,72.40
2018-04-25T22:23:51.724Z,72.30
2018-04-25T22:26:20.716Z,72.40
2018-04-25T22:28:49.711Z,73.50
2018-04-25T22:31:17.926Z,72.70
2018-04-25T22:33:46.921Z,72.30
2018-04-25T22:36:15.929Z,72.00
2018-04-25T22:38:44.924Z,74.10
2018-04-25T22:41:14.008Z,73.10
2018-04-25T22:43:43.025Z,72.30
2018-04-25T22:46:11.267Z,72.10
2018-04-25T22:48:39.491Z,73.10
2018-04-25T22:51:07.714Z,73.60
2018-04-25T22:53:35.932Z,72.80
2018-04-25T22:56:04.218Z,73.20
2018-04-25T22:58:32.473Z,73.00
2018-04-25T23:01:00.656Z,73.70
2018-04-25T23:03:28.963Z,72.60
2018-04-25T23:05:58.065Z,72.70
2018-04-25T23:08:27.134Z,74.00
2018-04-25T23:10:55.343Z,74.00
2018-04-25T23:13:23.754Z,73.20
2018-04-25T23:15:52.736Z,73.20
2018-04-25T23:18:20.970Z,73.10
2018-04-25T23:20:49.946Z,73.60
2018-04-25T23:23:18.920Z,73.70
2018-04-25T23:25:47.143Z,73.70
2018-04-25T23:28:16.126Z,73.70
2018-04-25T23:30:44.351Z,73.50
2018-04-25T23:33:12.578Z,73.90
2018-04-25T23:35:40.801Z,72.70
2018-04-25T23:38:09.013Z,73.40
2018-04-25T23:40:37.237Z,73.40
2018-04-25T23:43:05.512Z,73.00
2018-04-25T23:45:33.776Z,72.60
2018-04-25T23:48:02.773Z,73.60
2018-04-25T23:50:31.751Z,73.60
2018-04-25T23:52:59.957Z,73.50
2018-04-25T23:55:28.982Z,73.70
2018-04-25T23:57:57.246Z,73.60
